sensor_id;sensor_type;location;lat;lon;timestamp;temperature;humidity
12726;DHT22;6427;49.754;6.106;2023-05-13T00:02:09;13.10;99.90
12726;DHT22;6427;49.754;6.106;2023-05-13T00:04:36;13.00;99.90
12726;DHT22;6427;49.754;6.106;2023-05-13T00:07:04;12.90;99.90
12726;DHT22;6427;49.754;6.106;2023-05-13T00:09:32;12.80;99.90
12726;DHT22;6427;49.754;6.106;2023-05-13T00:11:59;13.00;99.90
12726;DHT22;6427;49.754;6.106;2023-05-13T00:14:27;12.90;99.90
12726;DHT22;6427;49.754;6.106;2023-05-13T00:16:54;12.80;99.90
12726;DHT22;6427;49.754;6.106;2023-05-13T00:19:22;12.70;99.90
12726;DHT22;6427;49.754;6.106;2023-05-13T00:21:49;12.70;99.90
12726;DHT22;6427;49.754;6.106;2023-05-13T00:24:18;12.50;99.90
12726;DHT22;6427;49.754;6.106;2023-05-13T00:26:46;12.50;99.90
12726;DHT22;6427;49.754;6.106;2023-05-13T00:29:13;12.50;99.90
12726;DHT22;6427;49.754;6.106;2023-05-13T00:31:41;12.50;99.90
12726;DHT22;6427;49.754;6.106;2023-05-13T00:34:08;12.40;99.90
12726;DHT22;6427;49.754;6.106;2023-05-13T00:36:36;12.60;99.90
12726;DHT22;6427;49.754;6.106;2023-05-13T00:39:03;12.80;99.90
12726;DHT22;6427;49.754;6.106;2023-05-13T00:41:32;12.50;99.90
12726;DHT22;6427;49.754;6.106;2023-05-13T00:43:59;12.60;99.90
12726;DHT22;6427;49.754;6.106;2023-05-13T00:46:29;12.40;99.90
12726;DHT22;6427;49.754;6.106;2023-05-13T00:48:54;12.30;99.90
12726;DHT22;6427;49.754;6.106;2023-05-13T00:51:22;12.20;99.90
12726;DHT22;6427;49.754;6.106;2023-05-13T00:53:50;12.10;99.90
12726;DHT22;6427;49.754;6.106;2023-05-13T00:56:20;12.10;99.90
12726;DHT22;6427;49.754;6.106;2023-05-13T00:58:48;12.10;99.90
12726;DHT22;6427;49.754;6.106;2023-05-13T01:06:26;12.10;99.90
12726;DHT22;6427;49.754;6.106;2023-05-13T01:08:59;11.90;99.90
12726;DHT22;6427;49.754;6.106;2023-05-13T01:11:28;11.80;99.90
12726;DHT22;6427;49.754;6.106;2023-05-13T01:13:58;11.80;99.90
12726;DHT22;6427;49.754;6.106;2023-05-13T01:16:29;11.70;99.90
12726;DHT22;6427;49.754;6.106;2023-05-13T01:19:05;11.70;99.90
12726;DHT22;6427;49.754;6.106;2023-05-13T01:21:27;11.60;99.90
12726;DHT22;6427;49.754;6.106;2023-05-13T01:23:57;11.80;99.90
12726;DHT22;6427;49.754;6.106;2023-05-13T01:26:25;12.00;99.90
12726;DHT22;6427;49.754;6.106;2023-05-13T01:28:52;11.90;99.90
12726;DHT22;6427;49.754;6.106;2023-05-13T01:31:20;11.80;99.90
12726;DHT22;6427;49.754;6.106;2023-05-13T01:33:47;11.70;99.90
12726;DHT22;6427;49.754;6.106;2023-05-13T01:36:15;11.60;99.90
12726;DHT22;6427;49.754;6.106;2023-05-13T01:38:43;11.50;99.90
12726;DHT22;6427;49.754;6.106;2023-05-13T01:41:11;11.40;99.90
12726;DHT22;6427;49.754;6.106;2023-05-13T01:43:38;11.40;99.90
12726;DHT22;6427;49.754;6.106;2023-05-13T01:46:15;11.30;99.90
12726;DHT22;6427;49.754;6.106;2023-05-13T01:48:33;11.50;99.90
12726;DHT22;6427;49.754;6.106;2023-05-13T01:51:01;11.80;99.90
12726;DHT22;6427;49.754;6.106;2023-05-13T01:53:29;11.70;99.90
12726;DHT22;6427;49.754;6.106;2023-05-13T01:55:56;11.60;99.90
12726;DHT22;6427;49.754;6.106;2023-05-13T01:58:24;11.40;99.90
12726;DHT22;6427;49.754;6.106;2023-05-13T02:00:52;11.40;99.90
12726;DHT22;6427;49.754;6.106;2023-05-13T02:03:20;11.30;99.90
12726;DHT22;6427;49.754;6.106;2023-05-13T02:05:47;11.30;99.90
12726;DHT22;6427;49.754;6.106;2023-05-13T02:08:15;11.20;99.90
12726;DHT22;6427;49.754;6.106;2023-05-13T02:10:42;11.10;99.90
12726;DHT22;6427;49.754;6.106;2023-05-13T02:13:10;11.10;99.90
12726;DHT22;6427;49.754;6.106;2023-05-13T02:15:38;11.30;99.90
12726;DHT22;6427;49.754;6.106;2023-05-13T02:18:06;11.20;99.90
12726;DHT22;6427;49.754;6.106;2023-05-13T02:20:33;11.20;99.90
12726;DHT22;6427;49.754;6.106;2023-05-13T02:23:01;11.10;99.90
12726;DHT22;6427;49.754;6.106;2023-05-13T02:25:28;11.10;99.90
12726;DHT22;6427;49.754;6.106;2023-05-13T02:27:56;11.00;99.90
12726;DHT22;6427;49.754;6.106;2023-05-13T02:30:24;11.00;99.90
12726;DHT22;6427;49.754;6.106;2023-05-13T02:32:52;10.90;99.90
12726;DHT22;6427;49.754;6.106;2023-05-13T02:35:20;10.90;99.90
12726;DHT22;6427;49.754;6.106;2023-05-13T02:37:47;10.80;99.90
12726;DHT22;6427;49.754;6.106;2023-05-13T02:40:15;10.80;99.90
12726;DHT22;6427;49.754;6.106;2023-05-13T02:42:43;11.00;99.90
12726;DHT22;6427;49.754;6.106;2023-05-13T02:45:11;10.90;99.90
12726;DHT22;6427;49.754;6.106;2023-05-13T02:47:38;10.90;99.90
12726;DHT22;6427;49.754;6.106;2023-05-13T02:50:06;10.90;99.90
12726;DHT22;6427;49.754;6.106;2023-05-13T02:52:34;10.80;99.90
12726;DHT22;6427;49.754;6.106;2023-05-13T02:55:02;10.80;99.90
12726;DHT22;6427;49.754;6.106;2023-05-13T02:57:29;10.70;99.90
12726;DHT22;6427;49.754;6.106;2023-05-13T02:59:57;10.60;99.90
12726;DHT22;6427;49.754;6.106;2023-05-13T03:02:25;10.60;99.90
12726;DHT22;6427;49.754;6.106;2023-05-13T03:04:53;10.50;99.90
12726;DHT22;6427;49.754;6.106;2023-05-13T03:07:20;10.40;99.90
12726;DHT22;6427;49.754;6.106;2023-05-13T03:09:48;10.30;99.90
12726;DHT22;6427;49.754;6.106;2023-05-13T03:12:16;10.30;99.90
12726;DHT22;6427;49.754;6.106;2023-05-13T03:14:44;10.20;99.90
12726;DHT22;6427;49.754;6.106;2023-05-13T03:17:12;10.20;99.90
12726;DHT22;6427;49.754;6.106;2023-05-13T03:19:41;10.10;99.90
12726;DHT22;6427;49.754;6.106;2023-05-13T03:22:08;10.10;99.90
12726;DHT22;6427;49.754;6.106;2023-05-13T03:24:36;10.10;99.90
12726;DHT22;6427;49.754;6.106;2023-05-13T03:27:03;10.10;99.90
12726;DHT22;6427;49.754;6.106;2023-05-13T03:29:31;10.30;99.90
12726;DHT22;6427;49.754;6.106;2023-05-13T03:31:58;10.20;99.90
12726;DHT22;6427;49.754;6.106;2023-05-13T03:34:26;10.10;99.90
12726;DHT22;6427;49.754;6.106;2023-05-13T03:36:53;10.30;99.90
12726;DHT22;6427;49.754;6.106;2023-05-13T03:39:21;10.30;99.90
12726;DHT22;6427;49.754;6.106;2023-05-13T03:41:49;10.10;99.90
12726;DHT22;6427;49.754;6.106;2023-05-13T03:44:17;10.10;99.90
12726;DHT22;6427;49.754;6.106;2023-05-13T03:46:44;10.00;99.90
12726;DHT22;6427;49.754;6.106;2023-05-13T03:49:12;10.00;99.90
12726;DHT22;6427;49.754;6.106;2023-05-13T03:51:40;9.80;99.90
12726;DHT22;6427;49.754;6.106;2023-05-13T03:54:08;9.80;99.90
12726;DHT22;6427;49.754;6.106;2023-05-13T03:56:35;9.80;99.90
12726;DHT22;6427;49.754;6.106;2023-05-13T03:59:03;9.70;99.90
12726;DHT22;6427;49.754;6.106;2023-05-13T04:01:30;9.70;99.90
12726;DHT22;6427;49.754;6.106;2023-05-13T04:03:58;9.60;99.90
12726;DHT22;6427;49.754;6.106;2023-05-13T04:06:26;9.50;99.90
12726;DHT22;6427;49.754;6.106;2023-05-13T04:08:54;9.50;99.90
12726;DHT22;6427;49.754;6.106;2023-05-13T04:11:21;9.50;99.90
12726;DHT22;6427;49.754;6.106;2023-05-13T04:13:50;9.60;99.90
12726;DHT22;6427;49.754;6.106;2023-05-13T04:16:18;9.60;99.90
12726;DHT22;6427;49.754;6.106;2023-05-13T04:18:45;9.60;99.90
12726;DHT22;6427;49.754;6.106;2023-05-13T04:21:13;9.50;99.90
12726;DHT22;6427;49.754;6.106;2023-05-13T04:23:41;9.50;99.90
12726;DHT22;6427;49.754;6.106;2023-05-13T04:26:08;9.50;99.90
12726;DHT22;6427;49.754;6.106;2023-05-13T04:28:36;9.40;99.90
12726;DHT22;6427;49.754;6.106;2023-05-13T04:31:04;9.40;99.90
12726;DHT22;6427;49.754;6.106;2023-05-13T04:33:32;9.40;99.90
12726;DHT22;6427;49.754;6.106;2023-05-13T04:35:59;9.40;99.90
12726;DHT22;6427;49.754;6.106;2023-05-13T04:38:29;9.40;99.90
12726;DHT22;6427;49.754;6.106;2023-05-13T04:40:55;9.40;99.90
12726;DHT22;6427;49.754;6.106;2023-05-13T04:43:24;9.60;99.90
12726;DHT22;6427;49.754;6.106;2023-05-13T04:45:51;9.60;99.90
12726;DHT22;6427;49.754;6.106;2023-05-13T04:48:19;9.60;99.90
12726;DHT22;6427;49.754;6.106;2023-05-13T04:50:46;9.50;99.90
12726;DHT22;6427;49.754;6.106;2023-05-13T04:53:15;9.80;99.90
12726;DHT22;6427;49.754;6.106;2023-05-13T04:55:42;9.80;99.90
12726;DHT22;6427;49.754;6.106;2023-05-13T04:58:10;9.80;99.90
12726;DHT22;6427;49.754;6.106;2023-05-13T05:00:37;9.80;99.90
12726;DHT22;6427;49.754;6.106;2023-05-13T05:03:05;9.80;99.90
12726;DHT22;6427;49.754;6.106;2023-05-13T05:05:33;9.80;99.90
12726;DHT22;6427;49.754;6.106;2023-05-13T05:08:01;9.80;99.90
12726;DHT22;6427;49.754;6.106;2023-05-13T05:10:28;9.80;99.90
12726;DHT22;6427;49.754;6.106;2023-05-13T05:12:56;9.90;99.90
12726;DHT22;6427;49.754;6.106;2023-05-13T05:15:23;9.90;99.90
12726;DHT22;6427;49.754;6.106;2023-05-13T05:17:52;10.10;99.90
12726;DHT22;6427;49.754;6.106;2023-05-13T05:20:19;10.00;99.90
12726;DHT22;6427;49.754;6.106;2023-05-13T05:22:47;10.10;99.90
12726;DHT22;6427;49.754;6.106;2023-05-13T05:25:14;10.10;99.90
12726;DHT22;6427;49.754;6.106;2023-05-13T05:27:42;10.20;99.90
12726;DHT22;6427;49.754;6.106;2023-05-13T05:30:10;10.30;99.90
12726;DHT22;6427;49.754;6.106;2023-05-13T05:32:37;10.30;99.90
12726;DHT22;6427;49.754;6.106;2023-05-13T05:35:05;10.40;99.90
12726;DHT22;6427;49.754;6.106;2023-05-13T05:37:32;10.40;99.90
12726;DHT22;6427;49.754;6.106;2023-05-13T05:40:00;10.50;99.90
12726;DHT22;6427;49.754;6.106;2023-05-13T05:42:27;10.60;99.90
12726;DHT22;6427;49.754;6.106;2023-05-13T05:44:55;10.60;99.90
12726;DHT22;6427;49.754;6.106;2023-05-13T05:47:23;10.70;99.90
12726;DHT22;6427;49.754;6.106;2023-05-13T05:49:50;10.80;99.90
12726;DHT22;6427;49.754;6.106;2023-05-13T05:52:18;10.90;99.90
12726;DHT22;6427;49.754;6.106;2023-05-13T05:54:45;11.00;99.90
12726;DHT22;6427;49.754;6.106;2023-05-13T05:57:13;11.10;99.90
12726;DHT22;6427;49.754;6.106;2023-05-13T05:59:40;11.20;99.90
12726;DHT22;6427;49.754;6.106;2023-05-13T06:02:08;11.30;99.90
12726;DHT22;6427;49.754;6.106;2023-05-13T06:04:35;11.50;99.90
12726;DHT22;6427;49.754;6.106;2023-05-13T06:07:03;11.60;99.90
12726;DHT22;6427;49.754;6.106;2023-05-13T06:09:30;11.60;99.90
12726;DHT22;6427;49.754;6.106;2023-05-13T06:11:59;11.70;99.90
12726;DHT22;6427;49.754;6.106;2023-05-13T06:14:26;11.60;99.90
12726;DHT22;6427;49.754;6.106;2023-05-13T06:16:54;11.70;99.90
12726;DHT22;6427;49.754;6.106;2023-05-13T06:19:21;11.90;99.90
12726;DHT22;6427;49.754;6.106;2023-05-13T06:21:49;11.90;99.90
12726;DHT22;6427;49.754;6.106;2023-05-13T06:24:17;12.00;99.90
12726;DHT22;6427;49.754;6.106;2023-05-13T06:26:46;12.10;99.90
12726;DHT22;6427;49.754;6.106;2023-05-13T06:29:12;12.10;99.90
12726;DHT22;6427;49.754;6.106;2023-05-13T06:31:40;12.30;99.90
12726;DHT22;6427;49.754;6.106;2023-05-13T06:34:08;12.40;99.90
12726;DHT22;6427;49.754;6.106;2023-05-13T06:36:35;12.50;99.90
12726;DHT22;6427;49.754;6.106;2023-05-13T06:39:03;12.60;99.90
12726;DHT22;6427;49.754;6.106;2023-05-13T06:41:30;12.70;99.90
12726;DHT22;6427;49.754;6.106;2023-05-13T06:43:58;13.10;99.90
12726;DHT22;6427;49.754;6.106;2023-05-13T06:46:26;13.10;99.90
12726;DHT22;6427;49.754;6.106;2023-05-13T06:48:54;13.30;99.90
12726;DHT22;6427;49.754;6.106;2023-05-13T06:51:22;13.30;99.90
12726;DHT22;6427;49.754;6.106;2023-05-13T06:53:49;13.40;99.90
12726;DHT22;6427;49.754;6.106;2023-05-13T06:56:17;13.70;99.90
12726;DHT22;6427;49.754;6.106;2023-05-13T06:58:45;13.80;99.90
12726;DHT22;6427;49.754;6.106;2023-05-13T07:01:12;13.90;99.90
12726;DHT22;6427;49.754;6.106;2023-05-13T07:03:40;13.90;99.90
12726;DHT22;6427;49.754;6.106;2023-05-13T07:06:07;14.00;99.90
12726;DHT22;6427;49.754;6.106;2023-05-13T07:08:35;14.00;99.90
12726;DHT22;6427;49.754;6.106;2023-05-13T07:11:03;14.30;99.90
12726;DHT22;6427;49.754;6.106;2023-05-13T07:13:31;14.30;99.90
12726;DHT22;6427;49.754;6.106;2023-05-13T07:15:58;14.40;99.90
12726;DHT22;6427;49.754;6.106;2023-05-13T07:18:26;14.70;99.90
12726;DHT22;6427;49.754;6.106;2023-05-13T07:20:53;14.70;99.90
12726;DHT22;6427;49.754;6.106;2023-05-13T07:23:21;14.80;99.90
12726;DHT22;6427;49.754;6.106;2023-05-13T07:25:49;14.90;99.90
12726;DHT22;6427;49.754;6.106;2023-05-13T07:28:19;14.90;99.90
12726;DHT22;6427;49.754;6.106;2023-05-13T07:30:47;15.00;99.90
12726;DHT22;6427;49.754;6.106;2023-05-13T07:33:15;15.10;99.90
12726;DHT22;6427;49.754;6.106;2023-05-13T07:35:43;15.10;99.90
12726;DHT22;6427;49.754;6.106;2023-05-13T07:38:10;15.20;99.90
12726;DHT22;6427;49.754;6.106;2023-05-13T07:40:38;15.30;99.90
12726;DHT22;6427;49.754;6.106;2023-05-13T07:43:06;15.40;99.90
12726;DHT22;6427;49.754;6.106;2023-05-13T07:45:35;15.60;99.90
12726;DHT22;6427;49.754;6.106;2023-05-13T07:48:02;15.60;99.90
12726;DHT22;6427;49.754;6.106;2023-05-13T07:50:30;15.70;99.90
12726;DHT22;6427;49.754;6.106;2023-05-13T07:52:58;16.00;99.90
12726;DHT22;6427;49.754;6.106;2023-05-13T07:55:26;16.00;99.90
12726;DHT22;6427;49.754;6.106;2023-05-13T07:57:53;16.10;99.90
12726;DHT22;6427;49.754;6.106;2023-05-13T08:00:22;16.40;99.90
12726;DHT22;6427;49.754;6.106;2023-05-13T08:02:49;16.40;99.90
12726;DHT22;6427;49.754;6.106;2023-05-13T08:05:17;16.50;99.90
12726;DHT22;6427;49.754;6.106;2023-05-13T08:07:44;16.60;99.90
12726;DHT22;6427;49.754;6.106;2023-05-13T08:10:12;16.70;99.90
12726;DHT22;6427;49.754;6.106;2023-05-13T08:12:39;16.80;99.90
12726;DHT22;6427;49.754;6.106;2023-05-13T08:15:07;16.90;99.90
12726;DHT22;6427;49.754;6.106;2023-05-13T08:17:34;17.00;99.90
12726;DHT22;6427;49.754;6.106;2023-05-13T08:20:02;17.10;99.90
12726;DHT22;6427;49.754;6.106;2023-05-13T08:22:30;17.30;99.90
12726;DHT22;6427;49.754;6.106;2023-05-13T08:24:57;17.60;99.90
12726;DHT22;6427;49.754;6.106;2023-05-13T08:27:25;17.70;99.90
12726;DHT22;6427;49.754;6.106;2023-05-13T08:29:53;17.80;99.90
12726;DHT22;6427;49.754;6.106;2023-05-13T08:32:21;17.80;99.90
12726;DHT22;6427;49.754;6.106;2023-05-13T08:34:48;17.90;99.90
12726;DHT22;6427;49.754;6.106;2023-05-13T08:37:16;18.00;99.90
12726;DHT22;6427;49.754;6.106;2023-05-13T08:39:43;18.10;99.90
12726;DHT22;6427;49.754;6.106;2023-05-13T08:42:11;18.10;99.90
12726;DHT22;6427;49.754;6.106;2023-05-13T08:44:39;18.20;99.90
12726;DHT22;6427;49.754;6.106;2023-05-13T08:47:29;18.30;99.90
12726;DHT22;6427;49.754;6.106;2023-05-13T08:49:53;18.30;99.90
12726;DHT22;6427;49.754;6.106;2023-05-13T08:52:21;18.50;99.90
12726;DHT22;6427;49.754;6.106;2023-05-13T08:54:49;18.40;99.90
12726;DHT22;6427;49.754;6.106;2023-05-13T08:57:16;18.60;99.90
12726;DHT22;6427;49.754;6.106;2023-05-13T08:59:44;18.70;99.90
12726;DHT22;6427;49.754;6.106;2023-05-13T09:02:11;18.70;99.90
12726;DHT22;6427;49.754;6.106;2023-05-13T09:04:39;18.80;99.90
12726;DHT22;6427;49.754;6.106;2023-05-13T09:07:07;18.80;99.90
12726;DHT22;6427;49.754;6.106;2023-05-13T09:09:34;18.90;99.90
12726;DHT22;6427;49.754;6.106;2023-05-13T09:12:02;18.90;99.90
12726;DHT22;6427;49.754;6.106;2023-05-13T09:14:29;19.00;99.90
12726;DHT22;6427;49.754;6.106;2023-05-13T09:17:02;19.10;99.60
12726;DHT22;6427;49.754;6.106;2023-05-13T09:19:30;19.10;99.30
12726;DHT22;6427;49.754;6.106;2023-05-13T09:21:57;19.40;98.00
12726;DHT22;6427;49.754;6.106;2023-05-13T09:24:25;19.40;97.60
12726;DHT22;6427;49.754;6.106;2023-05-13T09:26:53;19.60;96.40
12726;DHT22;6427;49.754;6.106;2023-05-13T09:29:21;19.60;96.40
12726;DHT22;6427;49.754;6.106;2023-05-13T09:31:55;19.60;96.30
12726;DHT22;6427;49.754;6.106;2023-05-13T09:34:28;19.60;96.20
12726;DHT22;6427;49.754;6.106;2023-05-13T09:37:05;19.70;96.30
12726;DHT22;6427;49.754;6.106;2023-05-13T09:39:30;19.70;96.30
12726;DHT22;6427;49.754;6.106;2023-05-13T09:41:56;19.70;96.10
12726;DHT22;6427;49.754;6.106;2023-05-13T09:44:24;19.70;96.30
12726;DHT22;6427;49.754;6.106;2023-05-13T09:46:52;19.80;96.40
12726;DHT22;6427;49.754;6.106;2023-05-13T09:49:23;19.90;96.30
12726;DHT22;6427;49.754;6.106;2023-05-13T09:51:50;19.90;95.80
12726;DHT22;6427;49.754;6.106;2023-05-13T09:54:17;20.00;95.90
12726;DHT22;6427;49.754;6.106;2023-05-13T09:56:45;20.10;96.20
12726;DHT22;6427;49.754;6.106;2023-05-13T09:59:14;20.20;95.90
12726;DHT22;6427;49.754;6.106;2023-05-13T10:01:40;20.30;95.50
12726;DHT22;6427;49.754;6.106;2023-05-13T10:04:08;20.30;95.20
12726;DHT22;6427;49.754;6.106;2023-05-13T10:06:36;20.60;94.30
12726;DHT22;6427;49.754;6.106;2023-05-13T10:09:04;20.70;93.90
12726;DHT22;6427;49.754;6.106;2023-05-13T10:11:32;20.70;93.90
12726;DHT22;6427;49.754;6.106;2023-05-13T10:14:00;20.80;93.60
12726;DHT22;6427;49.754;6.106;2023-05-13T10:16:27;20.80;93.10
12726;DHT22;6427;49.754;6.106;2023-05-13T10:18:55;20.90;92.00
12726;DHT22;6427;49.754;6.106;2023-05-13T10:21:24;20.90;92.00
12726;DHT22;6427;49.754;6.106;2023-05-13T10:23:50;21.00;92.40
12726;DHT22;6427;49.754;6.106;2023-05-13T10:26:22;21.10;92.40
12726;DHT22;6427;49.754;6.106;2023-05-13T10:28:47;21.10;92.20
12726;DHT22;6427;49.754;6.106;2023-05-13T10:31:14;21.10;92.20
12726;DHT22;6427;49.754;6.106;2023-05-13T10:33:41;21.10;92.00
12726;DHT22;6427;49.754;6.106;2023-05-13T10:36:18;21.30;90.70
12726;DHT22;6427;49.754;6.106;2023-05-13T10:44:24;21.40;87.00
12726;DHT22;6427;49.754;6.106;2023-05-13T10:46:54;21.30;85.50
12726;DHT22;6427;49.754;6.106;2023-05-13T10:49:19;21.60;85.10
12726;DHT22;6427;49.754;6.106;2023-05-13T10:51:48;21.60;85.50
12726;DHT22;6427;49.754;6.106;2023-05-13T10:54:18;21.60;85.40
12726;DHT22;6427;49.754;6.106;2023-05-13T10:56:54;21.60;85.10
12726;DHT22;6427;49.754;6.106;2023-05-13T10:59:13;21.60;85.00
12726;DHT22;6427;49.754;6.106;2023-05-13T11:01:41;21.90;81.10
12726;DHT22;6427;49.754;6.106;2023-05-13T11:04:13;22.10;79.00
12726;DHT22;6427;49.754;6.106;2023-05-13T11:06:40;22.10;77.10
12726;DHT22;6427;49.754;6.106;2023-05-13T11:09:11;22.10;75.50
12726;DHT22;6427;49.754;6.106;2023-05-13T11:11:35;22.00;74.90
12726;DHT22;6427;49.754;6.106;2023-05-13T11:14:21;22.00;75.40
12726;DHT22;6427;49.754;6.106;2023-05-13T11:16:52;22.10;74.90
12726;DHT22;6427;49.754;6.106;2023-05-13T11:19:22;22.20;74.60
12726;DHT22;6427;49.754;6.106;2023-05-13T11:21:50;22.50;71.90
12726;DHT22;6427;49.754;6.106;2023-05-13T11:24:17;22.40;71.80
12726;DHT22;6427;49.754;6.106;2023-05-13T11:26:51;22.80;69.50
12726;DHT22;6427;49.754;6.106;2023-05-13T11:31:55;22.90;67.70
12726;DHT22;6427;49.754;6.106;2023-05-13T11:34:22;23.00;66.30
12726;DHT22;6427;49.754;6.106;2023-05-13T11:36:54;23.00;65.00
12726;DHT22;6427;49.754;6.106;2023-05-13T11:39:18;23.00;64.20
12726;DHT22;6427;49.754;6.106;2023-05-13T11:41:45;23.10;64.90
12726;DHT22;6427;49.754;6.106;2023-05-13T11:44:13;23.10;63.90
12726;DHT22;6427;49.754;6.106;2023-05-13T11:46:59;23.10;62.80
12726;DHT22;6427;49.754;6.106;2023-05-13T11:49:38;23.00;61.20
12726;DHT22;6427;49.754;6.106;2023-05-13T11:52:11;22.80;60.70
12726;DHT22;6427;49.754;6.106;2023-05-13T11:54:51;22.70;63.00
12726;DHT22;6427;49.754;6.106;2023-05-13T11:57:25;22.60;62.20
12726;DHT22;6427;49.754;6.106;2023-05-13T12:02:23;22.80;63.60
12726;DHT22;6427;49.754;6.106;2023-05-13T12:04:50;22.80;63.30
12726;DHT22;6427;49.754;6.106;2023-05-13T12:07:24;23.00;62.90
12726;DHT22;6427;49.754;6.106;2023-05-13T12:09:48;23.00;62.80
12726;DHT22;6427;49.754;6.106;2023-05-13T12:12:16;23.00;61.50
12726;DHT22;6427;49.754;6.106;2023-05-13T12:14:44;23.50;59.40
12726;DHT22;6427;49.754;6.106;2023-05-13T12:17:12;23.40;59.40
12726;DHT22;6427;49.754;6.106;2023-05-13T12:19:39;23.40;59.10
12726;DHT22;6427;49.754;6.106;2023-05-13T12:22:07;23.40;59.80
12726;DHT22;6427;49.754;6.106;2023-05-13T12:24:35;23.40;61.50
12726;DHT22;6427;49.754;6.106;2023-05-13T12:27:04;23.30;62.30
12726;DHT22;6427;49.754;6.106;2023-05-13T12:29:41;23.30;61.30
12726;DHT22;6427;49.754;6.106;2023-05-13T12:32:08;23.20;61.10
12726;DHT22;6427;49.754;6.106;2023-05-13T12:34:36;22.80;61.20
12726;DHT22;6427;49.754;6.106;2023-05-13T12:37:10;22.80;61.20
12726;DHT22;6427;49.754;6.106;2023-05-13T12:39:38;22.60;62.10
12726;DHT22;6427;49.754;6.106;2023-05-13T12:42:05;22.40;61.90
12726;DHT22;6427;49.754;6.106;2023-05-13T12:44:34;22.20;62.70
12726;DHT22;6427;49.754;6.106;2023-05-13T12:47:01;22.20;62.60
12726;DHT22;6427;49.754;6.106;2023-05-13T12:49:29;22.20;62.30
12726;DHT22;6427;49.754;6.106;2023-05-13T12:51:56;22.20;62.00
12726;DHT22;6427;49.754;6.106;2023-05-13T12:54:24;22.30;62.00
12726;DHT22;6427;49.754;6.106;2023-05-13T12:56:51;22.40;61.50
12726;DHT22;6427;49.754;6.106;2023-05-13T12:59:19;22.50;61.00
12726;DHT22;6427;49.754;6.106;2023-05-13T13:01:47;22.80;57.50
12726;DHT22;6427;49.754;6.106;2023-05-13T13:04:14;22.80;58.10
12726;DHT22;6427;49.754;6.106;2023-05-13T13:06:42;22.80;58.60
12726;DHT22;6427;49.754;6.106;2023-05-13T13:09:09;22.80;58.00
12726;DHT22;6427;49.754;6.106;2023-05-13T13:11:38;22.80;56.30
12726;DHT22;6427;49.754;6.106;2023-05-13T13:14:05;22.80;56.30
12726;DHT22;6427;49.754;6.106;2023-05-13T13:16:33;22.80;57.80
12726;DHT22;6427;49.754;6.106;2023-05-13T13:19:00;22.90;57.90
12726;DHT22;6427;49.754;6.106;2023-05-13T13:21:28;22.80;57.90
12726;DHT22;6427;49.754;6.106;2023-05-13T13:23:56;22.80;57.90
12726;DHT22;6427;49.754;6.106;2023-05-13T13:26:24;22.70;59.10
12726;DHT22;6427;49.754;6.106;2023-05-13T13:28:51;22.50;59.20
12726;DHT22;6427;49.754;6.106;2023-05-13T13:31:19;22.40;59.40
12726;DHT22;6427;49.754;6.106;2023-05-13T13:33:46;22.40;59.80
12726;DHT22;6427;49.754;6.106;2023-05-13T13:36:14;22.40;59.60
12726;DHT22;6427;49.754;6.106;2023-05-13T13:38:41;22.50;60.00
12726;DHT22;6427;49.754;6.106;2023-05-13T13:41:09;22.50;59.60
12726;DHT22;6427;49.754;6.106;2023-05-13T13:43:37;22.60;60.00
12726;DHT22;6427;49.754;6.106;2023-05-13T13:46:05;23.00;59.60
12726;DHT22;6427;49.754;6.106;2023-05-13T13:48:35;23.00;59.50
12726;DHT22;6427;49.754;6.106;2023-05-13T13:51:02;23.20;58.80
12726;DHT22;6427;49.754;6.106;2023-05-13T13:53:31;23.80;55.70
12726;DHT22;6427;49.754;6.106;2023-05-13T13:55:59;23.70;55.70
12726;DHT22;6427;49.754;6.106;2023-05-13T13:58:26;23.80;54.90
12726;DHT22;6427;49.754;6.106;2023-05-13T14:00:54;23.80;54.70
12726;DHT22;6427;49.754;6.106;2023-05-13T14:03:22;24.00;53.20
12726;DHT22;6427;49.754;6.106;2023-05-13T14:05:50;23.40;51.60
12726;DHT22;6427;49.754;6.106;2023-05-13T14:08:18;23.30;51.50
12726;DHT22;6427;49.754;6.106;2023-05-13T14:10:45;22.70;55.20
12726;DHT22;6427;49.754;6.106;2023-05-13T14:13:14;21.00;64.90
12726;DHT22;6427;49.754;6.106;2023-05-13T14:15:41;20.90;64.80
12726;DHT22;6427;49.754;6.106;2023-05-13T14:18:09;20.10;70.00
12726;DHT22;6427;49.754;6.106;2023-05-13T14:20:37;18.60;79.40
12726;DHT22;6427;49.754;6.106;2023-05-13T14:23:05;18.60;79.40
12726;DHT22;6427;49.754;6.106;2023-05-13T14:25:34;18.00;83.50
12726;DHT22;6427;49.754;6.106;2023-05-13T14:28:01;17.40;86.70
12726;DHT22;6427;49.754;6.106;2023-05-13T14:30:29;17.00;89.20
12726;DHT22;6427;49.754;6.106;2023-05-13T14:32:57;17.00;91.90
12726;DHT22;6427;49.754;6.106;2023-05-13T14:35:24;17.10;93.00
12726;DHT22;6427;49.754;6.106;2023-05-13T14:37:52;17.20;94.50
12726;DHT22;6427;49.754;6.106;2023-05-13T14:40:20;17.00;95.60
12726;DHT22;6427;49.754;6.106;2023-05-13T14:42:47;16.90;96.80
12726;DHT22;6427;49.754;6.106;2023-05-13T14:45:15;16.80;98.60
12726;DHT22;6427;49.754;6.106;2023-05-13T14:47:43;16.80;99.90
12726;DHT22;6427;49.754;6.106;2023-05-13T14:50:10;16.70;99.90
12726;DHT22;6427;49.754;6.106;2023-05-13T14:52:38;16.90;99.90
12726;DHT22;6427;49.754;6.106;2023-05-13T14:55:05;16.90;99.90
12726;DHT22;6427;49.754;6.106;2023-05-13T14:57:33;16.80;99.90
12726;DHT22;6427;49.754;6.106;2023-05-13T15:00:01;16.80;99.90
12726;DHT22;6427;49.754;6.106;2023-05-13T15:02:28;17.00;99.90
12726;DHT22;6427;49.754;6.106;2023-05-13T15:04:58;17.00;99.90
12726;DHT22;6427;49.754;6.106;2023-05-13T15:07:27;17.20;99.90
12726;DHT22;6427;49.754;6.106;2023-05-13T15:09:56;17.30;99.90
12726;DHT22;6427;49.754;6.106;2023-05-13T15:12:35;17.50;99.90
12726;DHT22;6427;49.754;6.106;2023-05-13T15:15:03;17.80;99.90
12726;DHT22;6427;49.754;6.106;2023-05-13T15:17:31;17.90;99.90
12726;DHT22;6427;49.754;6.106;2023-05-13T15:19:58;18.00;99.90
12726;DHT22;6427;49.754;6.106;2023-05-13T15:22:26;18.00;99.90
12726;DHT22;6427;49.754;6.106;2023-05-13T15:24:54;18.30;99.90
12726;DHT22;6427;49.754;6.106;2023-05-13T15:27:22;18.50;99.90
12726;DHT22;6427;49.754;6.106;2023-05-13T15:29:50;18.50;99.90
12726;DHT22;6427;49.754;6.106;2023-05-13T15:32:17;18.70;99.90
12726;DHT22;6427;49.754;6.106;2023-05-13T15:34:45;18.80;99.90
12726;DHT22;6427;49.754;6.106;2023-05-13T15:37:13;18.90;99.90
12726;DHT22;6427;49.754;6.106;2023-05-13T15:39:40;19.00;99.90
12726;DHT22;6427;49.754;6.106;2023-05-13T15:42:08;19.00;99.90
12726;DHT22;6427;49.754;6.106;2023-05-13T15:44:35;19.10;99.90
12726;DHT22;6427;49.754;6.106;2023-05-13T15:47:04;19.20;99.90
12726;DHT22;6427;49.754;6.106;2023-05-13T15:49:31;19.10;99.90
12726;DHT22;6427;49.754;6.106;2023-05-13T15:51:59;19.20;99.90
12726;DHT22;6427;49.754;6.106;2023-05-13T15:54:27;19.70;99.90
12726;DHT22;6427;49.754;6.106;2023-05-13T15:56:55;19.70;99.90
12726;DHT22;6427;49.754;6.106;2023-05-13T15:59:23;20.40;99.90
12726;DHT22;6427;49.754;6.106;2023-05-13T16:01:51;20.30;99.90
12726;DHT22;6427;49.754;6.106;2023-05-13T16:04:19;21.20;98.50
12726;DHT22;6427;49.754;6.106;2023-05-13T16:06:46;21.20;98.50
12726;DHT22;6427;49.754;6.106;2023-05-13T16:09:14;21.50;97.40